createdAt,value
2018-02-12T00:00:08.623Z,20.20
2018-02-12T00:01:07.762Z,20.10
2018-02-12T00:02:07.781Z,20.50
2018-02-12T00:03:07.787Z,21.70
2018-02-12T00:04:07.765Z,21.00
2018-02-12T00:05:07.758Z,21.90
2018-02-12T00:06:07.752Z,22.50
2018-02-12T00:07:07.747Z,22.00
2018-02-12T00:08:07.749Z,21.30
2018-02-12T00:09:07.799Z,24.00
2018-02-12T00:10:07.738Z,23.60
2018-02-12T00:11:07.727Z,22.90
2018-02-12T00:12:07.732Z,24.30
2018-02-12T00:13:07.843Z,22.80
2018-02-12T00:14:07.741Z,25.00
2018-02-12T00:15:07.735Z,23.80
2018-02-12T00:16:07.749Z,23.40
2018-02-12T00:17:07.746Z,25.30
2018-02-12T00:18:07.812Z,23.90
2018-02-12T00:19:07.714Z,24.70
2018-02-12T00:20:07.709Z,25.00
2018-02-12T00:21:07.707Z,24.10
2018-02-12T00:22:07.851Z,21.70
2018-02-12T00:23:07.699Z,23.30
2018-02-12T00:24:07.696Z,23.00
2018-02-12T00:25:07.718Z,23.90
2018-02-12T00:26:07.707Z,22.70
2018-02-12T00:27:07.685Z,23.50
2018-02-12T00:28:07.847Z,22.60
2018-02-12T00:29:07.688Z,22.90
2018-02-12T00:30:07.688Z,23.10
2018-02-12T00:31:07.684Z,23.80
2018-02-12T00:32:07.705Z,23.20
2018-02-12T00:33:07.679Z,23.80
2018-02-12T00:34:07.717Z,22.60
2018-02-12T00:35:07.668Z,23.00
2018-02-12T00:36:07.674Z,22.10
2018-02-12T00:37:07.714Z,21.80
2018-02-12T00:38:07.680Z,24.10
2018-02-12T00:39:07.683Z,20.90
2018-02-12T00:40:07.660Z,23.40
2018-02-12T00:41:07.679Z,21.90
2018-02-12T00:42:07.663Z,21.70
2018-02-12T00:43:07.638Z,24.70
2018-02-12T00:44:07.640Z,23.00
2018-02-12T00:45:07.644Z,23.60
2018-02-12T00:46:07.727Z,22.40
2018-02-12T00:47:07.643Z,21.00
2018-02-12T00:48:07.658Z,23.30
2018-02-12T00:49:07.640Z,23.90
2018-02-12T00:50:07.625Z,23.70
2018-02-12T00:51:07.626Z,24.00
2018-02-12T00:52:07.639Z,24.00
2018-02-12T00:53:07.616Z,23.00
2018-02-12T00:54:07.608Z,23.50
2018-02-12T00:55:07.658Z,22.60
2018-02-12T00:56:07.608Z,23.00
2018-02-12T00:57:07.612Z,24.10
2018-02-12T00:58:07.599Z,25.40
2018-02-12T00:59:07.605Z,24.20
2018-02-12T01:00:07.614Z,24.10
2018-02-12T01:01:07.584Z,24.40
2018-02-12T01:02:07.596Z,24.20
2018-02-12T01:03:07.633Z,24.20
2018-02-12T01:04:07.586Z,23.60
2018-02-12T01:05:07.629Z,24.20
2018-02-12T01:06:07.598Z,22.70
2018-02-12T01:07:07.591Z,23.80
2018-02-12T01:08:07.583Z,23.00
2018-02-12T01:09:07.576Z,24.30
2018-02-12T01:10:07.581Z,25.10
2018-02-12T01:11:07.570Z,23.80
2018-02-12T01:12:07.590Z,23.90
2018-02-12T01:13:07.559Z,22.40
2018-02-12T01:14:07.569Z,23.50
2018-02-12T01:15:07.568Z,22.80
2018-02-12T01:16:07.551Z,23.50
2018-02-12T01:17:07.553Z,23.30
2018-02-12T01:18:07.548Z,23.10
2018-02-12T01:19:07.560Z,23.60
2018-02-12T01:20:07.572Z,23.60
2018-02-12T01:21:07.546Z,23.80
2018-02-12T01:22:07.555Z,23.30
2018-02-12T01:23:07.536Z,24.60
2018-02-12T01:24:07.561Z,23.20
2018-02-12T01:25:07.574Z,23.90
2018-02-12T01:26:07.530Z,23.70
2018-02-12T01:27:07.533Z,22.90
2018-02-12T01:28:07.524Z,25.70
2018-02-12T01:29:07.534Z,24.20
2018-02-12T01:30:07.516Z,23.10
2018-02-12T01:31:08.133Z,23.00
2018-02-12T01:32:07.535Z,22.60
2018-02-12T01:33:07.521Z,22.80
2018-02-12T01:34:07.534Z,21.80
2018-02-12T01:35:07.502Z,21.70
2018-02-12T01:36:07.501Z,21.80
2018-02-12T01:37:07.552Z,20.90
2018-02-12T01:38:07.508Z,21.60
2018-02-12T01:39:07.499Z,19.90
2018-02-12T01:40:07.542Z,20.80
2018-02-12T01:41:07.489Z,19.20
2018-02-12T01:42:07.496Z,19.60
2018-02-12T01:43:07.968Z,19.50
2018-02-12T01:44:07.505Z,18.80
2018-02-12T01:45:07.503Z,20.40
2018-02-12T01:46:07.484Z,18.70
2018-02-12T01:47:07.582Z,19.30
2018-02-12T01:48:07.469Z,18.80
2018-02-12T01:49:07.478Z,19.00
2018-02-12T01:50:07.468Z,19.60
2018-02-12T01:51:07.473Z,19.30
2018-02-12T01:52:07.472Z,20.40
2018-02-12T01:53:07.465Z,19.90
2018-02-12T01:54:07.462Z,22.40
2018-02-12T01:55:07.460Z,21.20
2018-02-12T01:56:07.453Z,21.70
2018-02-12T01:57:07.475Z,20.40
2018-02-12T01:58:07.452Z,20.60
2018-02-12T01:59:07.450Z,21.70
2018-02-12T02:00:07.440Z,21.80
2018-02-12T02:01:07.435Z,21.10
2018-02-12T02:02:07.435Z,20.90
2018-02-12T02:03:07.439Z,21.70
2018-02-12T02:04:07.479Z,21.40
2018-02-12T02:05:07.449Z,24.20
2018-02-12T02:06:07.448Z,23.40
2018-02-12T02:07:07.418Z,23.00
2018-02-12T02:08:08.143Z,23.20
2018-02-12T02:09:07.431Z,22.90
2018-02-12T02:10:07.418Z,24.30
2018-02-12T02:11:07.419Z,22.90
2018-02-12T02:12:07.419Z,22.60
2018-02-12T02:13:07.425Z,22.80
2018-02-12T02:14:07.402Z,22.40
2018-02-12T02:15:07.444Z,22.60
2018-02-12T02:16:07.407Z,22.80
2018-02-12T02:17:07.418Z,23.50
2018-02-12T02:18:07.405Z,22.20
2018-02-12T02:19:07.443Z,22.00
2018-02-12T02:20:07.395Z,22.40
2018-02-12T02:21:07.383Z,23.00
2018-02-12T02:22:07.389Z,23.80
2018-02-12T02:23:07.383Z,24.90
2018-02-12T02:24:07.375Z,25.20
2018-02-12T02:25:07.386Z,24.60
2018-02-12T02:26:07.390Z,25.10
2018-02-12T02:27:07.376Z,23.60
2018-02-12T02:28:08.142Z,24.30
2018-02-12T02:29:07.382Z,24.90
2018-02-12T02:30:07.373Z,25.10
2018-02-12T02:31:07.361Z,24.80
2018-02-12T02:32:07.365Z,24.70
2018-02-12T02:33:07.351Z,22.90
2018-02-12T02:34:07.397Z,23.20
2018-02-12T02:35:07.351Z,25.70
2018-02-12T02:36:07.354Z,24.20
2018-02-12T02:37:07.370Z,24.60
2018-02-12T02:38:07.361Z,24.30
2018-02-12T02:39:07.354Z,24.20
2018-02-12T02:40:07.337Z,24.80
2018-02-12T02:41:07.357Z,24.10
2018-02-12T02:42:07.334Z,25.30
2018-02-12T02:43:07.335Z,25.20
2018-02-12T02:44:07.332Z,25.50
2018-02-12T02:45:07.332Z,25.10
2018-02-12T02:46:07.329Z,25.20
2018-02-12T02:47:07.350Z,24.10
2018-02-12T02:48:07.317Z,25.20
2018-02-12T02:49:07.326Z,24.90
2018-02-12T02:50:07.325Z,26.40
2018-02-12T02:51:07.305Z,25.40
2018-02-12T02:52:07.380Z,24.80
2018-02-12T02:53:07.302Z,24.50
2018-02-12T02:54:07.299Z,25.90
2018-02-12T02:55:07.303Z,26.30
2018-02-12T02:56:07.313Z,25.70
2018-02-12T02:57:07.302Z,24.30
2018-02-12T02:58:07.317Z,24.70
2018-02-12T02:59:07.283Z,26.10
2018-02-12T03:00:07.290Z,25.20
2018-02-12T03:01:07.276Z,24.10
2018-02-12T03:02:07.329Z,25.70
2018-02-12T03:03:07.276Z,24.60
2018-02-12T03:04:07.294Z,25.20
2018-02-12T03:05:07.282Z,25.00
2018-02-12T03:06:07.293Z,25.10
2018-02-12T03:07:07.284Z,26.70
2018-02-12T03:08:07.281Z,24.50
2018-02-12T03:09:07.273Z,24.90
2018-02-12T03:10:07.262Z,25.50
2018-02-12T03:11:07.257Z,24.50
2018-02-12T03:12:07.258Z,23.20
2018-02-12T03:13:07.251Z,24.90
2018-02-12T03:14:07.251Z,25.60
2018-02-12T03:15:07.268Z,25.30
2018-02-12T03:16:07.267Z,25.40
2018-02-12T03:17:07.245Z,25.70
2018-02-12T03:18:07.287Z,25.30
2018-02-12T03:19:07.257Z,25.80
2018-02-12T03:20:07.267Z,25.80
2018-02-12T03:21:07.238Z,26.10
2018-02-12T03:22:07.243Z,26.10
2018-02-12T03:23:07.228Z,25.00
2018-02-12T03:24:07.243Z,25.90
2018-02-12T03:25:07.222Z,25.60
2018-02-12T03:26:07.224Z,27.30
2018-02-12T03:27:07.211Z,26.10
2018-02-12T03:28:07.235Z,25.40
2018-02-12T03:29:07.246Z,26.50
2018-02-12T03:30:07.208Z,26.70
2018-02-12T03:31:07.269Z,25.60
2018-02-12T03:32:07.195Z,25.90
2018-02-12T03:33:07.202Z,26.40
2018-02-12T03:34:07.235Z,26.30
2018-02-12T03:35:07.225Z,26.50
2018-02-12T03:36:07.235Z,27.50
2018-02-12T03:37:07.199Z,26.00
2018-02-12T03:38:07.209Z,25.20
2018-02-12T03:39:07.227Z,26.40
2018-02-12T03:40:08.152Z,26.20
2018-02-12T03:41:07.211Z,26.40
2018-02-12T03:42:07.199Z,25.40
2018-02-12T03:43:07.171Z,25.30
2018-02-12T03:44:07.192Z,24.40
2018-02-12T03:45:07.178Z,25.40
2018-02-12T03:46:07.174Z,25.40
2018-02-12T03:47:07.201Z,29.90
2018-02-12T03:48:07.160Z,23.90
2018-02-12T03:49:07.209Z,25.80
2018-02-12T03:50:07.169Z,24.90
2018-02-12T03:51:07.178Z,24.60
2018-02-12T03:52:07.155Z,24.20
2018-02-12T03:53:07.155Z,21.80
2018-02-12T03:54:07.142Z,21.80
2018-02-12T03:55:07.147Z,20.50
2018-02-12T03:56:07.140Z,21.50
2018-02-12T03:57:07.137Z,22.00
2018-02-12T03:58:07.148Z,20.20
2018-02-12T03:59:07.141Z,20.30
2018-02-12T04:00:07.140Z,20.60
2018-02-12T04:01:07.150Z,17.90
2018-02-12T04:02:07.151Z,17.90
2018-02-12T04:03:07.126Z,19.50
2018-02-12T04:04:07.138Z,18.10
2018-02-12T04:05:07.143Z,17.50
2018-02-12T04:06:07.356Z,17.30
2018-02-12T04:07:07.116Z,18.20
2018-02-12T04:08:07.109Z,17.50
2018-02-12T04:09:07.112Z,18.00
2018-02-12T04:10:07.110Z,19.70
2018-02-12T04:11:07.653Z,19.90
2018-02-12T04:12:07.133Z,18.80
2018-02-12T04:13:07.111Z,20.60
2018-02-12T04:14:07.088Z,19.50
2018-02-12T04:15:07.204Z,18.30
2018-02-12T04:16:07.106Z,19.40
2018-02-12T04:17:07.091Z,19.80
2018-02-12T04:18:07.118Z,19.90
2018-02-12T04:19:07.094Z,19.40
2018-02-12T04:20:07.118Z,17.40
2018-02-12T04:21:07.094Z,18.20
2018-02-12T04:22:07.082Z,17.80
2018-02-12T04:23:07.092Z,17.90
2018-02-12T04:24:07.075Z,20.90
2018-02-12T04:25:07.070Z,18.50
2018-02-12T04:26:07.072Z,19.70
2018-02-12T04:27:07.076Z,20.20
2018-02-12T04:28:07.656Z,19.20
2018-02-12T04:29:07.079Z,19.10
2018-02-12T04:30:07.067Z,19.30
2018-02-12T04:31:07.062Z,20.50
2018-02-12T04:32:07.065Z,23.40
2018-02-12T04:33:07.040Z,19.50
2018-02-12T04:34:07.048Z,20.70
2018-02-12T04:35:07.071Z,19.00
2018-02-12T04:36:07.064Z,21.10
2018-02-12T04:37:07.046Z,18.60
2018-02-12T04:38:07.040Z,20.60
2018-02-12T04:39:07.038Z,24.10
2018-02-12T04:40:07.028Z,20.20
2018-02-12T04:41:07.029Z,19.60
2018-02-12T04:42:07.030Z,19.90
2018-02-12T04:43:07.657Z,18.80
2018-02-12T04:44:07.025Z,17.80
2018-02-12T04:45:07.053Z,19.00
2018-02-12T04:46:07.017Z,18.80
2018-02-12T04:47:07.070Z,18.60
2018-02-12T04:48:07.013Z,17.50
2018-02-12T04:49:07.022Z,19.90
2018-02-12T04:50:07.028Z,17.60
2018-02-12T04:51:07.012Z,16.00
2018-02-12T04:52:07.008Z,14.80
2018-02-12T04:53:06.992Z,15.40
2018-02-12T04:54:06.989Z,16.60
2018-02-12T04:55:07.023Z,15.10
2018-02-12T04:56:06.993Z,14.60
2018-02-12T04:57:06.997Z,13.80
2018-02-12T04:58:06.992Z,13.30
2018-02-12T04:59:07.074Z,12.30
2018-02-12T05:00:06.974Z,12.10
2018-02-12T05:01:07.037Z,13.30
2018-02-12T05:02:06.981Z,12.30
2018-02-12T05:03:06.975Z,12.50
2018-02-12T05:04:06.972Z,11.90
2018-02-12T05:05:07.010Z,10.90
2018-02-12T05:06:06.961Z,12.10
2018-02-12T05:07:06.961Z,11.50
2018-02-12T05:08:06.971Z,11.30
2018-02-12T05:09:06.952Z,10.60
2018-02-12T05:10:06.956Z,11.70
2018-02-12T05:11:06.942Z,11.20
2018-02-12T05:12:06.958Z,10.80
2018-02-12T05:13:06.967Z,11.50
2018-02-12T05:14:06.960Z,11.40
2018-02-12T05:15:06.938Z,11.60
2018-02-12T05:16:06.934Z,12.00
2018-02-12T05:17:06.938Z,12.10
2018-02-12T05:18:06.929Z,12.00
2018-02-12T05:19:06.938Z,11.20
2018-02-12T05:20:06.929Z,12.30
2018-02-12T05:21:06.977Z,11.30
2018-02-12T05:22:06.919Z,12.60
2018-02-12T05:23:06.921Z,12.20
2018-02-12T05:24:06.917Z,12.30
2018-02-12T05:25:07.664Z,12.80
2018-02-12T05:26:06.942Z,11.80
2018-02-12T05:27:06.913Z,13.00
2018-02-12T05:28:06.903Z,12.10
2018-02-12T05:29:06.930Z,12.50
2018-02-12T05:30:07.674Z,15.00
2018-02-12T05:31:07.041Z,14.70
2018-02-12T05:32:06.904Z,16.00
2018-02-12T05:33:06.943Z,13.80
2018-02-12T05:34:06.893Z,14.10
2018-02-12T05:35:06.890Z,15.80
2018-02-12T05:36:06.906Z,14.20
2018-02-12T05:37:06.881Z,14.30
2018-02-12T05:38:06.882Z,16.80
2018-02-12T05:39:06.891Z,14.60
2018-02-12T05:40:06.892Z,16.70
2018-02-12T05:41:06.901Z,18.60
2018-02-12T05:42:06.885Z,17.20
2018-02-12T05:43:06.915Z,16.20
2018-02-12T05:44:06.865Z,18.30
2018-02-12T05:45:06.874Z,17.30
2018-02-12T05:46:06.872Z,19.10
2018-02-12T05:47:07.159Z,17.30
2018-02-12T05:48:06.889Z,22.00
2018-02-12T05:49:06.858Z,19.60
2018-02-12T05:50:06.852Z,18.80
2018-02-12T05:51:06.871Z,21.10
2018-02-12T05:52:06.849Z,18.80
2018-02-12T05:53:06.852Z,20.90
2018-02-12T05:54:06.857Z,22.30
2018-02-12T05:55:06.852Z,18.20
2018-02-12T05:56:06.882Z,23.00
2018-02-12T05:57:06.840Z,22.10
2018-02-12T05:58:06.843Z,21.10
2018-02-12T05:59:06.851Z,21.90
2018-02-12T06:00:06.820Z,21.50
2018-02-12T06:01:06.854Z,26.00
2018-02-12T06:02:06.842Z,24.50
2018-02-12T06:03:06.837Z,21.70
2018-02-12T06:04:06.819Z,20.80
2018-02-12T06:05:06.829Z,22.00
2018-02-12T06:06:06.809Z,23.60
2018-02-12T06:07:06.823Z,19.60
2018-02-12T06:08:06.807Z,25.60
2018-02-12T06:09:06.807Z,24.00
2018-02-12T06:10:06.819Z,22.00
2018-02-12T06:11:06.797Z,22.50
2018-02-12T06:12:06.794Z,23.80
2018-02-12T06:13:06.833Z,21.20
2018-02-12T06:14:06.782Z,23.90
2018-02-12T06:15:06.790Z,21.90
2018-02-12T06:16:06.804Z,24.90
2018-02-12T06:17:06.784Z,21.10
2018-02-12T06:18:06.790Z,21.90
2018-02-12T06:19:06.801Z,19.40
2018-02-12T06:20:06.769Z,22.60
2018-02-12T06:21:06.761Z,26.70
2018-02-12T06:22:06.771Z,20.40
2018-02-12T06:23:06.761Z,23.50
2018-02-12T06:24:06.765Z,20.00
2018-02-12T06:25:07.679Z,21.70
2018-02-12T06:26:06.759Z,19.00
2018-02-12T06:27:06.766Z,21.60
2018-02-12T06:28:06.755Z,21.70
2018-02-12T06:29:06.795Z,20.00
2018-02-12T06:30:06.763Z,25.90
2018-02-12T06:31:06.772Z,20.90
2018-02-12T06:32:06.998Z,22.50
2018-02-12T06:33:06.759Z,19.50
2018-02-12T06:34:06.728Z,21.20
2018-02-12T06:35:06.735Z,19.80
2018-02-12T06:36:06.728Z,22.20
2018-02-12T06:37:06.741Z,20.80
2018-02-12T06:38:06.738Z,20.80
2018-02-12T06:39:06.744Z,18.40
2018-02-12T06:40:06.738Z,21.40
2018-02-12T06:41:06.743Z,18.60
2018-02-12T06:42:06.710Z,22.10
2018-02-12T06:43:06.732Z,23.90
2018-02-12T06:44:06.703Z,19.20
2018-02-12T06:45:06.701Z,17.10
2018-02-12T06:46:06.719Z,19.40
2018-02-12T06:47:06.701Z,21.60
2018-02-12T06:48:06.708Z,22.70
2018-02-12T06:49:06.891Z,20.60
2018-02-12T06:50:08.692Z,20.50
2018-02-12T06:51:06.690Z,22.00
2018-02-12T06:52:06.696Z,19.60
2018-02-12T06:53:06.685Z,22.50
2018-02-12T06:54:06.700Z,22.70
2018-02-12T06:55:06.693Z,20.70
2018-02-12T06:56:06.693Z,19.10
2018-02-12T06:57:06.675Z,19.20
2018-02-12T06:58:06.691Z,21.30
2018-02-12T06:59:06.666Z,20.50
2018-02-12T07:00:06.669Z,15.10
2018-02-12T07:01:06.671Z,21.90
2018-02-12T07:02:06.663Z,17.80
2018-02-12T07:03:06.655Z,23.00
2018-02-12T07:04:06.652Z,22.00
2018-02-12T07:05:06.645Z,16.40
2018-02-12T07:06:06.650Z,20.10
2018-02-12T07:07:06.643Z,17.10
2018-02-12T07:08:06.658Z,17.40
2018-02-12T07:09:06.641Z,16.80
2018-02-12T07:10:06.646Z,19.10
2018-02-12T07:11:06.639Z,16.10
2018-02-12T07:12:07.188Z,15.10
2018-02-12T07:13:06.672Z,17.70
2018-02-12T07:14:06.623Z,18.20
2018-02-12T07:15:06.626Z,14.30
2018-02-12T07:16:06.642Z,16.70
2018-02-12T07:17:06.680Z,17.30
2018-02-12T07:18:06.616Z,13.50
2018-02-12T07:19:06.621Z,14.90
2018-02-12T07:20:06.650Z,14.60
2018-02-12T07:21:06.601Z,17.90
2018-02-12T07:22:06.620Z,14.00
2018-02-12T07:23:06.610Z,13.30
2018-02-12T07:24:06.598Z,17.50
2018-02-12T07:25:06.606Z,15.50
2018-02-12T07:26:06.622Z,15.20
2018-02-12T07:27:06.612Z,20.00
2018-02-12T07:28:06.616Z,16.70
2018-02-12T07:29:06.583Z,16.90
2018-02-12T07:30:06.614Z,15.20
2018-02-12T07:31:06.628Z,16.70
2018-02-12T07:32:06.594Z,14.30
2018-02-12T07:33:06.744Z,17.10
2018-02-12T07:34:06.593Z,15.70
2018-02-12T07:35:06.570Z,14.40
2018-02-12T07:36:06.589Z,11.90
2018-02-12T07:37:06.631Z,16.30
2018-02-12T07:38:06.582Z,15.80
2018-02-12T07:39:06.620Z,12.60
2018-02-12T07:40:06.590Z,13.00
2018-02-12T07:41:06.652Z,13.10
2018-02-12T07:42:06.552Z,11.60
2018-02-12T07:43:06.597Z,13.70
2018-02-12T07:44:06.547Z,12.70
2018-02-12T07:45:06.611Z,11.50
2018-02-12T07:46:07.181Z,13.80
2018-02-12T07:47:06.554Z,9.60
2018-02-12T07:48:06.548Z,9.10
2018-02-12T07:49:06.577Z,12.30
2018-02-12T07:50:06.533Z,13.00
2018-02-12T07:51:06.687Z,11.20
2018-02-12T07:52:06.563Z,11.80
2018-02-12T07:53:06.537Z,11.80
2018-02-12T07:54:07.263Z,10.70
2018-02-12T07:55:06.533Z,13.30
2018-02-12T07:56:06.528Z,13.10
2018-02-12T07:57:06.521Z,10.50
2018-02-12T07:58:06.522Z,12.10
2018-02-12T07:59:06.542Z,10.40
2018-02-12T08:00:06.509Z,9.80
2018-02-12T08:01:06.511Z,10.40
2018-02-12T08:02:06.514Z,11.50
2018-02-12T08:03:06.538Z,10.60
2018-02-12T08:04:06.500Z,12.10
2018-02-12T08:05:06.492Z,14.10
2018-02-12T08:06:06.542Z,13.70
2018-02-12T08:07:06.553Z,13.90
2018-02-12T08:08:06.495Z,15.40
2018-02-12T08:09:06.500Z,12.50
2018-02-12T08:10:06.502Z,13.90
2018-02-12T08:11:06.524Z,12.20
2018-02-12T08:12:06.579Z,12.20
2018-02-12T08:13:06.530Z,11.60
2018-02-12T08:14:06.489Z,14.10
2018-02-12T08:15:06.480Z,14.70
2018-02-12T08:16:06.523Z,12.00
2018-02-12T08:17:06.478Z,12.30
2018-02-12T08:18:06.492Z,14.30
2018-02-12T08:19:06.491Z,12.90
2018-02-12T08:20:06.514Z,12.90
2018-02-12T08:21:06.476Z,14.40
2018-02-12T08:22:06.485Z,15.10
2018-02-12T08:23:06.604Z,13.20
2018-02-12T08:24:07.278Z,15.40
2018-02-12T08:25:06.523Z,14.20
2018-02-12T08:26:06.478Z,14.10
2018-02-12T08:27:06.453Z,12.60
2018-02-12T08:28:06.491Z,12.90
2018-02-12T08:29:06.471Z,11.40
2018-02-12T08:30:06.486Z,13.30
2018-02-12T08:31:06.462Z,9.30
2018-02-12T08:32:06.756Z,14.90
2018-02-12T08:33:06.457Z,17.70
2018-02-12T08:34:06.459Z,15.80
2018-02-12T08:35:06.438Z,11.20
2018-02-12T08:36:06.561Z,13.70
2018-02-12T08:37:06.493Z,9.30
2018-02-12T08:38:06.607Z,13.30
2018-02-12T08:39:06.478Z,12.50
2018-02-12T08:40:06.604Z,11.30
2018-02-12T08:41:06.500Z,10.20
2018-02-12T08:42:06.506Z,12.50
2018-02-12T08:43:06.481Z,9.90
2018-02-12T08:44:06.544Z,10.30
2018-02-12T08:45:06.610Z,8.90
2018-02-12T08:46:06.563Z,7.70
2018-02-12T08:47:06.435Z,8.60
2018-02-12T08:48:06.475Z,7.60
2018-02-12T08:49:06.475Z,9.50
2018-02-12T08:50:06.463Z,10.20
2018-02-12T08:51:06.443Z,7.80
2018-02-12T08:52:06.476Z,7.70
2018-02-12T08:53:06.415Z,9.80
2018-02-12T08:54:07.192Z,6.10
2018-02-12T08:55:06.447Z,7.50
2018-02-12T08:56:06.417Z,7.30
2018-02-12T08:57:06.459Z,8.50
2018-02-12T08:58:06.420Z,8.10
2018-02-12T08:59:06.416Z,6.30
2018-02-12T09:00:06.419Z,7.90
2018-02-12T09:01:06.406Z,8.20
2018-02-12T09:02:06.441Z,6.20
2018-02-12T09:03:06.435Z,6.90
2018-02-12T09:04:06.481Z,5.80
2018-02-12T09:05:06.415Z,8.10
2018-02-12T09:06:06.410Z,6.30
2018-02-12T09:07:07.209Z,7.60
2018-02-12T09:08:06.402Z,6.40
2018-02-12T09:09:06.409Z,8.50
2018-02-12T09:10:07.204Z,10.30
2018-02-12T09:11:06.426Z,10.50
2018-02-12T09:12:06.416Z,7.80
2018-02-12T09:13:06.400Z,8.60
2018-02-12T09:14:06.409Z,7.00
2018-02-12T09:15:06.416Z,8.50
2018-02-12T09:16:06.410Z,8.30
2018-02-12T09:17:06.416Z,9.40
2018-02-12T09:18:06.413Z,7.70
2018-02-12T09:19:06.445Z,8.20
2018-02-12T09:20:06.685Z,5.50
2018-02-12T09:21:06.441Z,7.20
2018-02-12T09:22:06.431Z,6.10
2018-02-12T09:23:06.438Z,5.90
2018-02-12T09:24:06.438Z,9.10
2018-02-12T09:25:06.436Z,8.30
2018-02-12T09:26:06.450Z,7.70
2018-02-12T09:27:06.460Z,9.50
2018-02-12T09:28:06.444Z,7.50
2018-02-12T09:29:06.431Z,10.10
2018-02-12T09:30:06.449Z,11.40
2018-02-12T09:31:06.440Z,9.30
2018-02-12T09:32:06.439Z,10.10
2018-02-12T09:33:07.208Z,6.70
2018-02-12T09:34:06.446Z,8.30
2018-02-12T09:35:06.467Z,9.90
2018-02-12T09:36:06.476Z,10.30
2018-02-12T09:37:06.439Z,9.00
2018-02-12T09:38:06.462Z,10.70
2018-02-12T09:39:06.448Z,10.00
2018-02-12T09:40:06.465Z,8.50
2018-02-12T09:41:06.503Z,6.70
2018-02-12T09:42:06.459Z,7.30
2018-02-12T09:43:06.472Z,9.20
2018-02-12T09:44:06.473Z,7.90
2018-02-12T09:45:06.492Z,5.50
2018-02-12T09:46:06.471Z,6.30
2018-02-12T09:47:06.466Z,6.70
2018-02-12T09:48:06.649Z,10.30
2018-02-12T09:49:06.475Z,7.40
2018-02-12T09:50:06.487Z,9.90
2018-02-12T09:51:06.543Z,8.60
2018-02-12T09:52:06.494Z,9.20
2018-02-12T09:53:06.495Z,9.20
2018-02-12T09:54:06.485Z,8.60
2018-02-12T09:55:06.482Z,11.30
2018-02-12T09:56:06.490Z,11.40
2018-02-12T09:57:06.568Z,9.10
2018-02-12T09:58:06.492Z,8.30
2018-02-12T09:59:06.497Z,8.60
2018-02-12T10:00:06.497Z,8.90
2018-02-12T10:01:06.706Z,8.40
2018-02-12T10:02:06.520Z,10.80
2018-02-12T10:03:06.513Z,10.40
2018-02-12T10:04:06.565Z,10.10
2018-02-12T10:05:06.513Z,10.10
2018-02-12T10:06:06.518Z,8.70
2018-02-12T10:07:06.556Z,12.10
2018-02-12T10:08:06.525Z,9.80
2018-02-12T10:09:06.530Z,12.80
2018-02-12T10:10:06.533Z,10.30
2018-02-12T10:11:06.526Z,10.60
2018-02-12T10:12:06.559Z,12.00
2018-02-12T10:13:06.546Z,12.20
2018-02-12T10:14:06.558Z,11.80
2018-02-12T10:15:06.540Z,12.30
2018-02-12T10:16:06.553Z,11.10
2018-02-12T10:17:06.614Z,15.10
2018-02-12T10:18:06.548Z,12.50
2018-02-12T10:19:06.568Z,12.70
2018-02-12T10:20:06.568Z,15.70
2018-02-12T10:21:06.556Z,14.00
2018-02-12T10:22:06.594Z,12.10
2018-02-12T10:23:06.571Z,14.80
2018-02-12T10:24:06.585Z,15.80
2018-02-12T10:25:06.571Z,12.80
2018-02-12T10:26:06.565Z,13.10
2018-02-12T10:27:06.582Z,18.60
2018-02-12T10:28:06.603Z,16.50
2018-02-12T10:29:06.595Z,11.70
2018-02-12T10:30:06.579Z,12.30
2018-02-12T10:31:06.592Z,11.70
2018-02-12T10:32:07.293Z,11.20
2018-02-12T10:33:06.587Z,12.80
2018-02-12T10:34:06.594Z,10.70
2018-02-12T10:35:06.802Z,14.60
2018-02-12T10:36:06.619Z,10.40
2018-02-12T10:37:06.602Z,12.80
2018-02-12T10:38:06.590Z,11.90
2018-02-12T10:39:06.639Z,11.80
2018-02-12T10:40:06.590Z,10.60
2018-02-12T10:41:06.610Z,10.60
2018-02-12T10:42:06.639Z,9.50
2018-02-12T10:43:06.621Z,12.30
2018-02-12T10:44:06.619Z,11.70
2018-02-12T10:45:06.632Z,8.00
2018-02-12T10:46:06.612Z,14.80
2018-02-12T10:47:06.638Z,11.60
2018-02-12T10:48:06.714Z,9.80
2018-02-12T10:49:06.703Z,9.00
2018-02-12T10:50:06.658Z,8.40
2018-02-12T10:51:06.698Z,11.30
2018-02-12T10:52:07.247Z,11.10
2018-02-12T10:53:06.662Z,11.20
2018-02-12T10:54:06.648Z,11.00
2018-02-12T10:55:06.652Z,9.20
2018-02-12T10:56:06.669Z,10.90
2018-02-12T10:57:06.732Z,8.40
2018-02-12T10:58:06.674Z,8.80
2018-02-12T10:59:06.696Z,8.50
2018-02-12T11:00:06.669Z,12.70
2018-02-12T11:01:06.676Z,11.90
2018-02-12T11:02:06.686Z,10.00
2018-02-12T11:03:06.686Z,9.10
2018-02-12T11:04:06.723Z,9.40
2018-02-12T11:05:06.730Z,9.00
2018-02-12T11:06:06.733Z,7.30
2018-02-12T11:07:06.720Z,9.60
2018-02-12T11:08:06.724Z,11.20
2018-02-12T11:09:06.723Z,8.60
2018-02-12T11:10:06.726Z,9.70
2018-02-12T11:11:06.755Z,11.70
2018-02-12T11:12:06.731Z,9.00
2018-02-12T11:13:06.755Z,8.80
2018-02-12T11:14:06.742Z,9.60
2018-02-12T11:15:06.735Z,9.60
2018-02-12T11:16:06.816Z,9.70
2018-02-12T11:17:06.764Z,10.90
2018-02-12T11:18:06.756Z,10.60
2018-02-12T11:19:06.840Z,8.80
2018-02-12T11:20:06.789Z,10.10
2018-02-12T11:21:06.786Z,10.40
2018-02-12T11:22:06.817Z,8.60
2018-02-12T11:23:06.862Z,11.50
2018-02-12T11:24:06.790Z,10.30
2018-02-12T11:25:06.834Z,8.90
2018-02-12T11:26:06.812Z,11.10
2018-02-12T11:27:06.828Z,10.40
2018-02-12T11:28:06.888Z,10.00
2018-02-12T11:29:06.885Z,9.60
2018-02-12T11:30:06.848Z,9.80
2018-02-12T11:31:06.833Z,10.40
2018-02-12T11:32:06.876Z,9.00
2018-02-12T11:33:06.847Z,12.20
2018-02-12T11:34:06.867Z,10.20
2018-02-12T11:35:06.877Z,10.90
2018-02-12T11:36:06.881Z,9.50
2018-02-12T11:37:06.860Z,11.20
2018-02-12T11:38:06.895Z,9.50
2018-02-12T11:39:06.923Z,9.80
2018-02-12T11:40:06.894Z,9.60
2018-02-12T11:41:06.981Z,11.10
2018-02-12T11:42:06.908Z,11.00
2018-02-12T11:43:06.933Z,11.10
2018-02-12T11:44:06.967Z,11.00
2018-02-12T11:45:06.904Z,11.20
2018-02-12T11:46:06.903Z,11.10
2018-02-12T11:47:06.904Z,9.60
2018-02-12T11:48:06.920Z,11.30
2018-02-12T11:49:06.929Z,10.20
2018-02-12T11:50:06.935Z,12.00
2018-02-12T11:51:07.001Z,10.90
2018-02-12T11:52:07.075Z,11.10
2018-02-12T11:53:06.947Z,9.90
2018-02-12T11:54:06.947Z,10.00
2018-02-12T11:55:06.936Z,9.00
2018-02-12T11:56:06.953Z,10.60
2018-02-12T11:57:06.942Z,11.20
2018-02-12T11:58:06.954Z,8.50
2018-02-12T11:59:06.960Z,11.00
2018-02-12T12:00:06.952Z,7.90
2018-02-12T12:01:06.994Z,8.70
2018-02-12T12:02:06.962Z,9.80
2018-02-12T12:03:06.982Z,12.10
2018-02-12T12:04:06.981Z,9.10
2018-02-12T12:05:06.973Z,9.30
2018-02-12T12:06:07.044Z,8.40
2018-02-12T12:07:06.986Z,15.30
2018-02-12T12:08:07.002Z,10.20
2018-02-12T12:09:06.976Z,11.80
2018-02-12T12:10:07.002Z,9.40
2018-02-12T12:11:06.999Z,11.30
2018-02-12T12:12:07.012Z,9.30
2018-02-12T12:13:06.997Z,13.10
2018-02-12T12:14:07.006Z,11.90
2018-02-12T12:15:06.999Z,10.60
2018-02-12T12:16:07.002Z,9.40
2018-02-12T12:17:07.007Z,9.90
2018-02-12T12:18:07.017Z,11.30
2018-02-12T12:19:07.010Z,11.00
2018-02-12T12:20:07.152Z,9.80
2018-02-12T12:21:07.038Z,11.50
2018-02-12T12:22:07.027Z,11.00
2018-02-12T12:23:07.046Z,13.10
2018-02-12T12:24:07.040Z,8.20
2018-02-12T12:25:07.040Z,11.80
2018-02-12T12:26:07.040Z,8.30
2018-02-12T12:27:07.775Z,10.10
2018-02-12T12:28:07.022Z,12.70
2018-02-12T12:29:07.054Z,8.50
2018-02-12T12:30:07.040Z,15.00
2018-02-12T12:31:07.041Z,9.90
2018-02-12T12:32:07.051Z,11.20
2018-02-12T12:33:07.797Z,12.20
2018-02-12T12:34:07.031Z,9.00
2018-02-12T12:35:07.047Z,10.50
2018-02-12T12:36:07.087Z,10.30
2018-02-12T12:37:07.105Z,13.30
2018-02-12T12:38:07.786Z,8.70
2018-02-12T12:39:07.775Z,9.20
2018-02-12T12:40:07.077Z,10.90
2018-02-12T12:41:07.079Z,12.90
2018-02-12T12:42:07.063Z,11.20
2018-02-12T12:43:07.097Z,15.50
2018-02-12T12:44:07.042Z,13.40
2018-02-12T12:45:07.100Z,11.20
2018-02-12T12:46:07.790Z,12.50
2018-02-12T12:47:07.083Z,9.60
2018-02-12T12:48:07.155Z,11.70
2018-02-12T12:49:07.094Z,15.50
2018-02-12T12:50:07.058Z,11.80
2018-02-12T12:51:07.099Z,12.50
2018-02-12T12:53:07.081Z,13.10
2018-02-12T12:54:07.087Z,12.60
2018-02-12T12:55:07.091Z,13.60
2018-02-12T12:56:07.099Z,11.50
2018-02-12T12:57:07.083Z,12.10